sensor_id;sensor_type;location;lat;lon;timestamp;pressure;altitude;pressure_sealevel;temperature
45393;BMP280;31129;44.810;10.334;2023-07-20T00:00:40;100160.41;;;28.19
45393;BMP280;31129;44.810;10.334;2023-07-20T00:03:14;100165.88;;;28.17
45393;BMP280;31129;44.810;10.334;2023-07-20T00:05:45;100166.47;;;27.92
45393;BMP280;31129;44.810;10.334;2023-07-20T00:08:11;100153.66;;;27.89
45393;BMP280;31129;44.810;10.334;2023-07-20T00:10:37;100141.47;;;28.08
45393;BMP280;31129;44.810;10.334;2023-07-20T00:13:02;100136.84;;;28.01
45393;BMP280;31129;44.810;10.334;2023-07-20T00:15:28;100137.34;;;27.97
45393;BMP280;31129;44.810;10.334;2023-07-20T00:17:53;100152.34;;;27.90
45393;BMP280;31129;44.810;10.334;2023-07-20T00:20:19;100156.47;;;27.89
45393;BMP280;31129;44.810;10.334;2023-07-20T00:22:47;100162.22;;;27.80
45393;BMP280;31129;44.810;10.334;2023-07-20T00:25:13;100158.44;;;27.63
45393;BMP280;31129;44.810;10.334;2023-07-20T00:27:39;100160.50;;;27.75
45393;BMP280;31129;44.810;10.334;2023-07-20T00:30:05;100169.53;;;27.73
45393;BMP280;31129;44.810;10.334;2023-07-20T00:32:31;100187.31;;;27.78
45393;BMP280;31129;44.810;10.334;2023-07-20T00:34:59;100205.25;;;27.73
45393;BMP280;31129;44.810;10.334;2023-07-20T00:37:24;100212.97;;;27.84
45393;BMP280;31129;44.810;10.334;2023-07-20T00:39:53;100217.34;;;27.75
45393;BMP280;31129;44.810;10.334;2023-07-20T00:42:18;100225.25;;;27.34
45393;BMP280;31129;44.810;10.334;2023-07-20T00:44:44;100221.69;;;27.22
45393;BMP280;31129;44.810;10.334;2023-07-20T00:47:10;100233.69;;;26.92
45393;BMP280;31129;44.810;10.334;2023-07-20T00:49:35;100240.13;;;26.73
45393;BMP280;31129;44.810;10.334;2023-07-20T00:52:03;100245.78;;;26.63
45393;BMP280;31129;44.810;10.334;2023-07-20T00:54:29;100239.81;;;26.48
45393;BMP280;31129;44.810;10.334;2023-07-20T00:56:55;100238.66;;;26.72
45393;BMP280;31129;44.810;10.334;2023-07-20T00:59:20;100222.47;;;26.92
45393;BMP280;31129;44.810;10.334;2023-07-20T01:01:46;100208.72;;;26.96
45393;BMP280;31129;44.810;10.334;2023-07-20T01:04:12;100205.06;;;26.93
45393;BMP280;31129;44.810;10.334;2023-07-20T01:09:29;100183.16;;;27.01
45393;BMP280;31129;44.810;10.334;2023-07-20T01:12:12;100180.97;;;27.00
45393;BMP280;31129;44.810;10.334;2023-07-20T01:14:42;100186.56;;;27.21
45393;BMP280;31129;44.810;10.334;2023-07-20T01:17:07;100188.94;;;27.36
45393;BMP280;31129;44.810;10.334;2023-07-20T01:19:32;100184.03;;;27.25
45393;BMP280;31129;44.810;10.334;2023-07-20T01:30:25;100173.91;;;27.32
45393;BMP280;31129;44.810;10.334;2023-07-20T01:32:55;100179.53;;;27.32
45393;BMP280;31129;44.810;10.334;2023-07-20T01:35:23;100195.41;;;27.06
45393;BMP280;31129;44.810;10.334;2023-07-20T01:37:52;100183.34;;;27.03
45393;BMP280;31129;44.810;10.334;2023-07-20T01:40:20;100185.72;;;27.18
45393;BMP280;31129;44.810;10.334;2023-07-20T01:42:47;100193.25;;;27.16
45393;BMP280;31129;44.810;10.334;2023-07-20T01:45:13;100206.28;;;27.44
45393;BMP280;31129;44.810;10.334;2023-07-20T01:47:39;100214.75;;;27.23
45393;BMP280;31129;44.810;10.334;2023-07-20T01:50:06;100203.72;;;26.73
45393;BMP280;31129;44.810;10.334;2023-07-20T01:52:32;100209.16;;;26.50
45393;BMP280;31129;44.810;10.334;2023-07-20T01:54:57;100211.19;;;26.59
45393;BMP280;31129;44.810;10.334;2023-07-20T01:57:23;100205.09;;;26.62
45393;BMP280;31129;44.810;10.334;2023-07-20T01:59:48;100206.09;;;26.46
45393;BMP280;31129;44.810;10.334;2023-07-20T02:02:14;100202.66;;;26.57
45393;BMP280;31129;44.810;10.334;2023-07-20T02:04:39;100207.09;;;26.50
45393;BMP280;31129;44.810;10.334;2023-07-20T02:07:05;100194.13;;;26.76
45393;BMP280;31129;44.810;10.334;2023-07-20T02:09:34;100203.78;;;26.63
45393;BMP280;31129;44.810;10.334;2023-07-20T02:12:15;100208.28;;;26.47
45393;BMP280;31129;44.810;10.334;2023-07-20T02:14:40;100201.59;;;26.62
45393;BMP280;31129;44.810;10.334;2023-07-20T02:17:05;100200.63;;;26.48
45393;BMP280;31129;44.810;10.334;2023-07-20T02:19:31;100200.25;;;26.63
45393;BMP280;31129;44.810;10.334;2023-07-20T02:21:56;100192.53;;;26.73
45393;BMP280;31129;44.810;10.334;2023-07-20T02:24:23;100193.81;;;26.51
45393;BMP280;31129;44.810;10.334;2023-07-20T02:26:48;100195.84;;;26.60
45393;BMP280;31129;44.810;10.334;2023-07-20T02:29:14;100207.09;;;26.50
45393;BMP280;31129;44.810;10.334;2023-07-20T02:31:39;100209.41;;;26.54
45393;BMP280;31129;44.810;10.334;2023-07-20T02:34:06;100188.78;;;26.59
45393;BMP280;31129;44.810;10.334;2023-07-20T02:36:32;100202.66;;;26.57
45393;BMP280;31129;44.810;10.334;2023-07-20T02:39:00;100202.91;;;26.30
45393;BMP280;31129;44.810;10.334;2023-07-20T02:41:29;100208.03;;;26.34
45393;BMP280;31129;44.810;10.334;2023-07-20T02:43:55;100198.66;;;26.29
45393;BMP280;31129;44.810;10.334;2023-07-20T02:46:22;100198.88;;;26.12
45393;BMP280;31129;44.810;10.334;2023-07-20T02:48:47;100197.34;;;26.20
45393;BMP280;31129;44.810;10.334;2023-07-20T02:51:13;100199.09;;;26.25
45393;BMP280;31129;44.810;10.334;2023-07-20T02:53:38;100184.50;;;26.27
45393;BMP280;31129;44.810;10.334;2023-07-20T02:56:04;100188.19;;;26.30
45393;BMP280;31129;44.810;10.334;2023-07-20T02:58:29;100192.00;;;26.34
45393;BMP280;31129;44.810;10.334;2023-07-20T03:00:55;100198.59;;;26.39
45393;BMP280;31129;44.810;10.334;2023-07-20T03:03:20;100200.38;;;26.34
45393;BMP280;31129;44.810;10.334;2023-07-20T03:05:46;100195.41;;;26.33
45393;BMP280;31129;44.810;10.334;2023-07-20T03:08:11;100196.84;;;26.34
45393;BMP280;31129;44.810;10.334;2023-07-20T03:10:41;100197.13;;;26.38
45393;BMP280;31129;44.810;10.334;2023-07-20T03:13:06;100192.31;;;26.29
45393;BMP280;31129;44.810;10.334;2023-07-20T03:15:32;100191.16;;;26.22
45393;BMP280;31129;44.810;10.334;2023-07-20T03:17:58;100200.28;;;26.22
45393;BMP280;31129;44.810;10.334;2023-07-20T03:20:24;100193.34;;;26.23
45393;BMP280;31129;44.810;10.334;2023-07-20T03:22:50;100194.16;;;26.45
45393;BMP280;31129;44.810;10.334;2023-07-20T03:25:15;100190.66;;;26.35
45393;BMP280;31129;44.810;10.334;2023-07-20T03:27:44;100193.13;;;26.41
45393;BMP280;31129;44.810;10.334;2023-07-20T03:30:10;100189.09;;;26.22
45393;BMP280;31129;44.810;10.334;2023-07-20T03:32:37;100185.63;;;26.12
45393;BMP280;31129;44.810;10.334;2023-07-20T03:35:03;100188.31;;;26.32
45393;BMP280;31129;44.810;10.334;2023-07-20T03:37:28;100185.06;;;26.35
45393;BMP280;31129;44.810;10.334;2023-07-20T03:39:54;100171.63;;;26.43
45393;BMP280;31129;44.810;10.334;2023-07-20T03:42:19;100186.78;;;26.40
45393;BMP280;31129;44.810;10.334;2023-07-20T03:44:45;100189.47;;;26.38
45393;BMP280;31129;44.810;10.334;2023-07-20T03:47:14;100194.47;;;26.40
45393;BMP280;31129;44.810;10.334;2023-07-20T03:49:39;100186.50;;;26.46
45393;BMP280;31129;44.810;10.334;2023-07-20T03:52:08;100192.81;;;26.46
45393;BMP280;31129;44.810;10.334;2023-07-20T03:54:33;100195.59;;;26.46
45393;BMP280;31129;44.810;10.334;2023-07-20T03:56:59;100195.28;;;26.52
45393;BMP280;31129;44.810;10.334;2023-07-20T03:59:26;100192.31;;;26.81
45393;BMP280;31129;44.810;10.334;2023-07-20T04:01:51;100200.22;;;26.94
45393;BMP280;31129;44.810;10.334;2023-07-20T04:04:17;100194.69;;;26.53
45393;BMP280;31129;44.810;10.334;2023-07-20T04:06:43;100200.66;;;25.98
45393;BMP280;31129;44.810;10.334;2023-07-20T04:09:10;100197.13;;;26.07
45393;BMP280;31129;44.810;10.334;2023-07-20T04:11:36;100204.03;;;26.37
45393;BMP280;31129;44.810;10.334;2023-07-20T04:14:01;100193.88;;;26.93
45393;BMP280;31129;44.810;10.334;2023-07-20T04:16:26;100191.00;;;27.03
45393;BMP280;31129;44.810;10.334;2023-07-20T04:18:55;100192.78;;;26.77
45393;BMP280;31129;44.810;10.334;2023-07-20T04:21:20;100196.66;;;26.41
45393;BMP280;31129;44.810;10.334;2023-07-20T04:23:46;100201.97;;;26.37
45393;BMP280;31129;44.810;10.334;2023-07-20T04:26:12;100200.78;;;26.40
45393;BMP280;31129;44.810;10.334;2023-07-20T04:28:38;100197.13;;;26.90
45393;BMP280;31129;44.810;10.334;2023-07-20T04:31:15;100195.53;;;26.65
45393;BMP280;31129;44.810;10.334;2023-07-20T04:33:42;100189.00;;;26.94
45393;BMP280;31129;44.810;10.334;2023-07-20T04:36:11;100204.13;;;26.79
45393;BMP280;31129;44.810;10.334;2023-07-20T04:38:36;100193.75;;;26.91
45393;BMP280;31129;44.810;10.334;2023-07-20T04:41:12;100201.41;;;26.91
45393;BMP280;31129;44.810;10.334;2023-07-20T04:43:41;100187.59;;;26.62
45393;BMP280;31129;44.810;10.334;2023-07-20T04:46:09;100191.78;;;26.11
45393;BMP280;31129;44.810;10.334;2023-07-20T04:48:35;100187.97;;;26.16
45393;BMP280;31129;44.810;10.334;2023-07-20T04:51:01;100179.94;;;26.53
45393;BMP280;31129;44.810;10.334;2023-07-20T04:53:27;100174.00;;;26.89
45393;BMP280;31129;44.810;10.334;2023-07-20T04:55:53;100188.47;;;27.07
45393;BMP280;31129;44.810;10.334;2023-07-20T04:58:21;100195.91;;;27.35
45393;BMP280;31129;44.810;10.334;2023-07-20T05:00:51;100192.00;;;27.40
45393;BMP280;31129;44.810;10.334;2023-07-20T05:03:17;100184.28;;;27.29
45393;BMP280;31129;44.810;10.334;2023-07-20T05:05:43;100182.31;;;26.99
45393;BMP280;31129;44.810;10.334;2023-07-20T05:08:09;100186.66;;;26.90
45393;BMP280;31129;44.810;10.334;2023-07-20T05:10:35;100183.59;;;26.65
45393;BMP280;31129;44.810;10.334;2023-07-20T05:13:00;100185.72;;;26.76
45393;BMP280;31129;44.810;10.334;2023-07-20T05:15:26;100189.53;;;26.81
45393;BMP280;31129;44.810;10.334;2023-07-20T05:17:52;100189.25;;;26.77
45393;BMP280;31129;44.810;10.334;2023-07-20T05:20:18;100188.06;;;26.80
45393;BMP280;31129;44.810;10.334;2023-07-20T05:22:45;100181.38;;;27.06
45393;BMP280;31129;44.810;10.334;2023-07-20T05:25:11;100187.09;;;27.08
45393;BMP280;31129;44.810;10.334;2023-07-20T05:27:37;100192.97;;;27.12
45393;BMP280;31129;44.810;10.334;2023-07-20T05:30:04;100184.00;;;26.92
45393;BMP280;31129;44.810;10.334;2023-07-20T05:32:29;100181.56;;;26.98
45393;BMP280;31129;44.810;10.334;2023-07-20T05:34:55;100188.69;;;27.11
45393;BMP280;31129;44.810;10.334;2023-07-20T05:37:21;100194.06;;;27.07
45393;BMP280;31129;44.810;10.334;2023-07-20T05:39:46;100197.66;;;26.98
45393;BMP280;31129;44.810;10.334;2023-07-20T05:42:12;100203.38;;;27.21
45393;BMP280;31129;44.810;10.334;2023-07-20T05:44:37;100198.09;;;26.52
45393;BMP280;31129;44.810;10.334;2023-07-20T05:47:03;100200.19;;;26.73
45393;BMP280;31129;44.810;10.334;2023-07-20T05:49:35;100203.28;;;27.31
45393;BMP280;31129;44.810;10.334;2023-07-20T05:52:01;100207.78;;;27.24
45393;BMP280;31129;44.810;10.334;2023-07-20T05:54:27;100202.69;;;27.32
45393;BMP280;31129;44.810;10.334;2023-07-20T05:56:52;100199.78;;;26.66
45393;BMP280;31129;44.810;10.334;2023-07-20T05:59:18;100202.38;;;27.16
45393;BMP280;31129;44.810;10.334;2023-07-20T06:01:45;100209.56;;;27.41
45393;BMP280;31129;44.810;10.334;2023-07-20T06:04:12;100210.41;;;27.43
45393;BMP280;31129;44.810;10.334;2023-07-20T06:06:37;100216.63;;;27.42
45393;BMP280;31129;44.810;10.334;2023-07-20T06:09:03;100213.91;;;27.32
45393;BMP280;31129;44.810;10.334;2023-07-20T06:11:32;100210.28;;;27.41
45393;BMP280;31129;44.810;10.334;2023-07-20T06:13:57;100220.28;;;27.44
45393;BMP280;31129;44.810;10.334;2023-07-20T06:16:23;100216.72;;;27.32
45393;BMP280;31129;44.810;10.334;2023-07-20T06:18:48;100218.13;;;27.54
45393;BMP280;31129;44.810;10.334;2023-07-20T06:21:14;100222.94;;;27.63
45393;BMP280;31129;44.810;10.334;2023-07-20T06:23:40;100229.44;;;27.45
45393;BMP280;31129;44.810;10.334;2023-07-20T06:26:06;100234.53;;;27.15
45393;BMP280;31129;44.810;10.334;2023-07-20T06:28:32;100235.31;;;27.49
45393;BMP280;31129;44.810;10.334;2023-07-20T06:31:01;100237.75;;;27.54
45393;BMP280;31129;44.810;10.334;2023-07-20T06:33:27;100237.84;;;27.45
45393;BMP280;31129;44.810;10.334;2023-07-20T06:35:53;100243.16;;;27.62
45393;BMP280;31129;44.810;10.334;2023-07-20T06:38:19;100235.09;;;27.56
45393;BMP280;31129;44.810;10.334;2023-07-20T06:40:48;100244.53;;;27.73
45393;BMP280;31129;44.810;10.334;2023-07-20T06:43:13;100235.78;;;27.90
45393;BMP280;31129;44.810;10.334;2023-07-20T06:45:39;100243.47;;;28.01
45393;BMP280;31129;44.810;10.334;2023-07-20T06:48:05;100243.00;;;28.04
45393;BMP280;31129;44.810;10.334;2023-07-20T06:50:31;100240.69;;;28.01
45393;BMP280;31129;44.810;10.334;2023-07-20T06:52:56;100250.72;;;28.04
45393;BMP280;31129;44.810;10.334;2023-07-20T06:55:22;100241.66;;;27.94
45393;BMP280;31129;44.810;10.334;2023-07-20T06:57:48;100246.59;;;27.72
45393;BMP280;31129;44.810;10.334;2023-07-20T07:00:13;100255.50;;;28.13
45393;BMP280;31129;44.810;10.334;2023-07-20T07:02:39;100252.03;;;28.38
45393;BMP280;31129;44.810;10.334;2023-07-20T07:05:05;100251.94;;;28.36
45393;BMP280;31129;44.810;10.334;2023-07-20T07:07:31;100253.16;;;28.44
45393;BMP280;31129;44.810;10.334;2023-07-20T07:09:57;100251.09;;;28.33
45393;BMP280;31129;44.810;10.334;2023-07-20T07:12:23;100250.47;;;28.58
45393;BMP280;31129;44.810;10.334;2023-07-20T07:14:48;100258.03;;;28.32
45393;BMP280;31129;44.810;10.334;2023-07-20T07:17:13;100253.13;;;27.98
45393;BMP280;31129;44.810;10.334;2023-07-20T07:19:42;100252.91;;;27.94
45393;BMP280;31129;44.810;10.334;2023-07-20T07:22:09;100256.38;;;27.83
45393;BMP280;31129;44.810;10.334;2023-07-20T07:24:35;100259.25;;;28.29
45393;BMP280;31129;44.810;10.334;2023-07-20T07:27:01;100253.25;;;28.23
45393;BMP280;31129;44.810;10.334;2023-07-20T07:29:27;100251.69;;;28.20
45393;BMP280;31129;44.810;10.334;2023-07-20T07:31:52;100250.34;;;28.44
45393;BMP280;31129;44.810;10.334;2023-07-20T07:34:18;100252.91;;;28.52
45393;BMP280;31129;44.810;10.334;2023-07-20T07:36:43;100254.97;;;28.63
45393;BMP280;31129;44.810;10.334;2023-07-20T07:39:09;100250.09;;;28.63
45393;BMP280;31129;44.810;10.334;2023-07-20T07:41:35;100253.91;;;28.56
45393;BMP280;31129;44.810;10.334;2023-07-20T07:44:00;100246.44;;;28.73
45393;BMP280;31129;44.810;10.334;2023-07-20T07:46:26;100249.09;;;28.82
45393;BMP280;31129;44.810;10.334;2023-07-20T07:48:51;100248.34;;;28.82
45393;BMP280;31129;44.810;10.334;2023-07-20T07:51:17;100245.53;;;28.82
45393;BMP280;31129;44.810;10.334;2023-07-20T07:53:42;100239.41;;;28.97
45393;BMP280;31129;44.810;10.334;2023-07-20T07:56:09;100241.13;;;28.90
45393;BMP280;31129;44.810;10.334;2023-07-20T07:58:34;100237.84;;;28.82
45393;BMP280;31129;44.810;10.334;2023-07-20T08:01:00;100237.50;;;28.76
45393;BMP280;31129;44.810;10.334;2023-07-20T08:03:25;100245.28;;;28.89
45393;BMP280;31129;44.810;10.334;2023-07-20T08:05:54;100255.59;;;29.10
45393;BMP280;31129;44.810;10.334;2023-07-20T08:08:21;100250.53;;;29.32
45393;BMP280;31129;44.810;10.334;2023-07-20T08:10:46;100252.31;;;29.39
45393;BMP280;31129;44.810;10.334;2023-07-20T08:13:12;100264.31;;;29.39
45393;BMP280;31129;44.810;10.334;2023-07-20T08:15:38;100256.13;;;29.57
45393;BMP280;31129;44.810;10.334;2023-07-20T08:18:05;100262.91;;;29.52
45393;BMP280;31129;44.810;10.334;2023-07-20T08:20:31;100261.03;;;29.56
45393;BMP280;31129;44.810;10.334;2023-07-20T08:22:57;100264.53;;;29.69
45393;BMP280;31129;44.810;10.334;2023-07-20T08:25:25;100263.13;;;29.81
45393;BMP280;31129;44.810;10.334;2023-07-20T08:27:50;100263.88;;;29.95
45393;BMP280;31129;44.810;10.334;2023-07-20T08:30:21;100268.16;;;29.96
45393;BMP280;31129;44.810;10.334;2023-07-20T08:32:48;100257.00;;;29.98
45393;BMP280;31129;44.810;10.334;2023-07-20T08:35:14;100253.44;;;29.98
45393;BMP280;31129;44.810;10.334;2023-07-20T08:37:40;100257.94;;;30.17
45393;BMP280;31129;44.810;10.334;2023-07-20T08:40:06;100260.06;;;30.16
45393;BMP280;31129;44.810;10.334;2023-07-20T08:42:35;100253.59;;;30.14
45393;BMP280;31129;44.810;10.334;2023-07-20T08:45:06;100262.88;;;30.16
45393;BMP280;31129;44.810;10.334;2023-07-20T08:47:33;100250.00;;;29.99
45393;BMP280;31129;44.810;10.334;2023-07-20T08:49:58;100246.34;;;29.97
45393;BMP280;31129;44.810;10.334;2023-07-20T08:52:24;100245.41;;;30.20
45393;BMP280;31129;44.810;10.334;2023-07-20T08:54:50;100253.66;;;30.02
45393;BMP280;31129;44.810;10.334;2023-07-20T08:57:17;100248.91;;;29.79
45393;BMP280;31129;44.810;10.334;2023-07-20T08:59:43;100233.97;;;30.02
45393;BMP280;31129;44.810;10.334;2023-07-20T09:02:15;100235.31;;;30.28
45393;BMP280;31129;44.810;10.334;2023-07-20T09:04:44;100248.38;;;30.35
45393;BMP280;31129;44.810;10.334;2023-07-20T09:07:09;100242.84;;;30.37
45393;BMP280;31129;44.810;10.334;2023-07-20T09:09:39;100249.72;;;30.48
45393;BMP280;31129;44.810;10.334;2023-07-20T09:12:13;100246.97;;;30.77
45393;BMP280;31129;44.810;10.334;2023-07-20T09:14:48;100250.53;;;30.78
45393;BMP280;31129;44.810;10.334;2023-07-20T09:17:14;100242.22;;;30.95
45393;BMP280;31129;44.810;10.334;2023-07-20T09:19:47;100241.72;;;30.99
45393;BMP280;31129;44.810;10.334;2023-07-20T09:22:13;100246.72;;;31.00
45393;BMP280;31129;44.810;10.334;2023-07-20T09:24:39;100240.91;;;30.83
45393;BMP280;31129;44.810;10.334;2023-07-20T09:27:04;100244.47;;;30.83
45393;BMP280;31129;44.810;10.334;2023-07-20T09:29:30;100243.09;;;30.84
45393;BMP280;31129;44.810;10.334;2023-07-20T09:32:03;100238.66;;;31.08
45393;BMP280;31129;44.810;10.334;2023-07-20T09:34:32;100242.53;;;31.01
45393;BMP280;31129;44.810;10.334;2023-07-20T09:36:58;100245.59;;;30.92
45393;BMP280;31129;44.810;10.334;2023-07-20T09:39:24;100241.25;;;30.75
45393;BMP280;31129;44.810;10.334;2023-07-20T09:41:50;100235.50;;;30.59
45393;BMP280;31129;44.810;10.334;2023-07-20T09:44:16;100246.75;;;30.73
45393;BMP280;31129;44.810;10.334;2023-07-20T09:46:46;100239.00;;;30.87
45393;BMP280;31129;44.810;10.334;2023-07-20T09:49:12;100241.66;;;30.83
45393;BMP280;31129;44.810;10.334;2023-07-20T09:51:38;100230.72;;;31.05
45393;BMP280;31129;44.810;10.334;2023-07-20T09:54:05;100225.69;;;31.03
45393;BMP280;31129;44.810;10.334;2023-07-20T09:56:31;100232.16;;;30.77
45393;BMP280;31129;44.810;10.334;2023-07-20T09:58:58;100220.22;;;30.92
45393;BMP280;31129;44.810;10.334;2023-07-20T10:01:24;100216.56;;;31.19
45393;BMP280;31129;44.810;10.334;2023-07-20T10:03:53;100217.16;;;31.31
45393;BMP280;31129;44.810;10.334;2023-07-20T10:06:23;100219.41;;;31.34
45393;BMP280;31129;44.810;10.334;2023-07-20T10:08:53;100218.69;;;31.34
45393;BMP280;31129;44.810;10.334;2023-07-20T10:11:22;100212.03;;;31.27
45393;BMP280;31129;44.810;10.334;2023-07-20T10:13:49;100217.44;;;31.52
45393;BMP280;31129;44.810;10.334;2023-07-20T10:16:28;100218.53;;;31.61
45393;BMP280;31129;44.810;10.334;2023-07-20T10:19:07;100215.50;;;31.57
45393;BMP280;31129;44.810;10.334;2023-07-20T10:21:40;100206.53;;;31.60
45393;BMP280;31129;44.810;10.334;2023-07-20T10:24:10;100209.50;;;31.64
45393;BMP280;31129;44.810;10.334;2023-07-20T10:26:39;100214.28;;;31.60
45393;BMP280;31129;44.810;10.334;2023-07-20T10:29:05;100209.13;;;31.72
45393;BMP280;31129;44.810;10.334;2023-07-20T10:34:16;100199.69;;;31.81
45393;BMP280;31129;44.810;10.334;2023-07-20T10:36:46;100206.69;;;31.96
45393;BMP280;31129;44.810;10.334;2023-07-20T10:39:46;100204.53;;;32.28
45393;BMP280;31129;44.810;10.334;2023-07-20T10:42:12;100207.22;;;32.41
45393;BMP280;31129;44.810;10.334;2023-07-20T10:44:38;100210.00;;;32.24
45393;BMP280;31129;44.810;10.334;2023-07-20T10:47:12;100199.81;;;32.16
45393;BMP280;31129;44.810;10.334;2023-07-20T10:50:00;100203.22;;;31.97
45393;BMP280;31129;44.810;10.334;2023-07-20T10:52:26;100196.97;;;32.16
45393;BMP280;31129;44.810;10.334;2023-07-20T10:54:51;100199.53;;;32.10
45393;BMP280;31129;44.810;10.334;2023-07-20T10:57:27;100202.84;;;32.05
45393;BMP280;31129;44.810;10.334;2023-07-20T11:00:07;100197.28;;;32.07
45393;BMP280;31129;44.810;10.334;2023-07-20T11:02:42;100195.66;;;32.35
45393;BMP280;31129;44.810;10.334;2023-07-20T11:05:36;100197.88;;;32.21
45393;BMP280;31129;44.810;10.334;2023-07-20T11:08:09;100189.91;;;32.33
45393;BMP280;31129;44.810;10.334;2023-07-20T11:10:35;100190.47;;;32.30
45393;BMP280;31129;44.810;10.334;2023-07-20T11:13:23;100186.91;;;32.29
45393;BMP280;31129;44.810;10.334;2023-07-20T11:18:28;100173.38;;;32.61
45393;BMP280;31129;44.810;10.334;2023-07-20T11:20:53;100175.50;;;32.78
45393;BMP280;31129;44.810;10.334;2023-07-20T11:23:22;100171.53;;;32.85
45393;BMP280;31129;44.810;10.334;2023-07-20T11:25:49;100168.00;;;32.67
45393;BMP280;31129;44.810;10.334;2023-07-20T11:28:14;100162.97;;;32.65
45393;BMP280;31129;44.810;10.334;2023-07-20T11:30:41;100165.25;;;32.69
45393;BMP280;31129;44.810;10.334;2023-07-20T11:33:08;100169.34;;;32.84
45393;BMP280;31129;44.810;10.334;2023-07-20T11:35:44;100167.63;;;33.12
45393;BMP280;31129;44.810;10.334;2023-07-20T11:38:12;100159.50;;;33.22
45393;BMP280;31129;44.810;10.334;2023-07-20T11:40:42;100158.34;;;32.92
45393;BMP280;31129;44.810;10.334;2023-07-20T11:43:08;100150.44;;;32.70
45393;BMP280;31129;44.810;10.334;2023-07-20T11:45:35;100156.91;;;32.73
45393;BMP280;31129;44.810;10.334;2023-07-20T11:48:00;100144.94;;;32.92
45393;BMP280;31129;44.810;10.334;2023-07-20T11:50:26;100155.78;;;32.98
45393;BMP280;31129;44.810;10.334;2023-07-20T11:52:51;100143.78;;;33.37
45393;BMP280;31129;44.810;10.334;2023-07-20T11:55:17;100141.25;;;33.45
45393;BMP280;31129;44.810;10.334;2023-07-20T11:58:03;100141.75;;;33.39
45393;BMP280;31129;44.810;10.334;2023-07-20T12:00:29;100131.88;;;33.40
45393;BMP280;31129;44.810;10.334;2023-07-20T12:02:54;100130.41;;;33.39
45393;BMP280;31129;44.810;10.334;2023-07-20T12:05:22;100124.13;;;33.60
45393;BMP280;31129;44.810;10.334;2023-07-20T12:07:49;100123.66;;;33.68
45393;BMP280;31129;44.810;10.334;2023-07-20T12:10:15;100110.38;;;33.94
45393;BMP280;31129;44.810;10.334;2023-07-20T12:12:42;100126.00;;;34.17
45393;BMP280;31129;44.810;10.334;2023-07-20T12:17:46;100113.91;;;34.36
45393;BMP280;31129;44.810;10.334;2023-07-20T12:20:27;100117.22;;;34.52
45393;BMP280;31129;44.810;10.334;2023-07-20T12:22:52;100114.38;;;34.52
45393;BMP280;31129;44.810;10.334;2023-07-20T12:25:18;100106.06;;;34.58
45393;BMP280;31129;44.810;10.334;2023-07-20T12:27:48;100108.53;;;34.46
45393;BMP280;31129;44.810;10.334;2023-07-20T12:30:13;100095.06;;;34.47
45393;BMP280;31129;44.810;10.334;2023-07-20T12:32:39;100106.28;;;34.90
45393;BMP280;31129;44.810;10.334;2023-07-20T12:35:05;100103.28;;;34.60
45393;BMP280;31129;44.810;10.334;2023-07-20T12:37:31;100108.13;;;34.56
45393;BMP280;31129;44.810;10.334;2023-07-20T12:39:57;100100.34;;;34.80
45393;BMP280;31129;44.810;10.334;2023-07-20T12:42:22;100097.59;;;35.08
45393;BMP280;31129;44.810;10.334;2023-07-20T12:44:49;100099.16;;;35.13
45393;BMP280;31129;44.810;10.334;2023-07-20T12:47:14;100094.97;;;35.16
45393;BMP280;31129;44.810;10.334;2023-07-20T12:49:40;100089.28;;;35.16
45393;BMP280;31129;44.810;10.334;2023-07-20T12:52:12;100088.56;;;35.41
45393;BMP280;31129;44.810;10.334;2023-07-20T12:54:37;100087.28;;;35.46
45393;BMP280;31129;44.810;10.334;2023-07-20T12:57:03;100082.47;;;35.53
45393;BMP280;31129;44.810;10.334;2023-07-20T12:59:29;100088.41;;;35.63
45393;BMP280;31129;44.810;10.334;2023-07-20T13:01:54;100084.03;;;35.85
45393;BMP280;31129;44.810;10.334;2023-07-20T13:04:20;100078.81;;;36.05
45393;BMP280;31129;44.810;10.334;2023-07-20T13:06:45;100083.63;;;35.99
45393;BMP280;31129;44.810;10.334;2023-07-20T13:09:11;100075.03;;;36.27
45393;BMP280;31129;44.810;10.334;2023-07-20T13:11:36;100079.00;;;36.45
45393;BMP280;31129;44.810;10.334;2023-07-20T13:14:02;100072.41;;;36.37
45393;BMP280;31129;44.810;10.334;2023-07-20T13:16:27;100073.03;;;36.33
45393;BMP280;31129;44.810;10.334;2023-07-20T13:18:53;100073.53;;;36.24
45393;BMP280;31129;44.810;10.334;2023-07-20T13:21:18;100063.97;;;36.41
45393;BMP280;31129;44.810;10.334;2023-07-20T13:23:48;100065.88;;;36.30
45393;BMP280;31129;44.810;10.334;2023-07-20T13:26:15;100064.16;;;36.49
45393;BMP280;31129;44.810;10.334;2023-07-20T13:28:40;100051.69;;;36.66
45393;BMP280;31129;44.810;10.334;2023-07-20T13:31:06;100060.63;;;36.86
45393;BMP280;31129;44.810;10.334;2023-07-20T13:33:33;100059.94;;;36.88
45393;BMP280;31129;44.810;10.334;2023-07-20T13:35:59;100055.41;;;36.75
45393;BMP280;31129;44.810;10.334;2023-07-20T13:38:24;100051.22;;;36.78
45393;BMP280;31129;44.810;10.334;2023-07-20T13:40:50;100044.50;;;36.99
45393;BMP280;31129;44.810;10.334;2023-07-20T13:43:15;100035.72;;;37.24
45393;BMP280;31129;44.810;10.334;2023-07-20T13:45:41;100033.88;;;37.01
45393;BMP280;31129;44.810;10.334;2023-07-20T13:48:07;100038.53;;;37.22
45393;BMP280;31129;44.810;10.334;2023-07-20T13:50:32;100038.06;;;37.36
45393;BMP280;31129;44.810;10.334;2023-07-20T13:52:57;100039.34;;;37.29
45393;BMP280;31129;44.810;10.334;2023-07-20T13:55:23;100037.47;;;37.44
45393;BMP280;31129;44.810;10.334;2023-07-20T13:57:51;100041.69;;;37.41
45393;BMP280;31129;44.810;10.334;2023-07-20T14:00:17;100041.44;;;37.68
45393;BMP280;31129;44.810;10.334;2023-07-20T14:02:42;100035.50;;;38.02